Time;durP1;ratioP1;P1;durP2;ratioP2;P2;SDS_P1;SDS_P2;PMS_P1;PMS_P2;Temp;Humidity;BMP_temperature;BMP_pressure;BME280_temperature;BME280_humidity;BME280_pressure;Samples;Min_cycle;Max_cycle;Signal;HPM_P1;HPM_P2
2021/07/09 00:01:27;;;;;;;;;;;;;;;21.47;62.48;101942.72;2211632;39;115775;-56
2021/07/09 00:03:02;;;;;;;;;;;;;;;21.51;62.79;101945.78;2210343;39;115687;-56
2021/07/09 00:04:34;;;;;;;;;;;;;;;21.50;62.51;101938.47;2207199;39;115512;-56
2021/07/09 00:06:06;;;;;;;;;;;;;;;21.47;62.92;101945.53;2211571;39;115460;-56
2021/07/09 00:07:38;;;;;;;;;;;;;;;21.50;62.95;101935.66;2211977;39;115703;-56
2021/07/09 00:09:10;;;;;;;;;;;;;;;21.48;62.66;101943.56;2212168;39;115491;-56
2021/07/09 00:10:42;;;;;;;;;;;;;;;21.49;62.86;101942.41;2209723;39;116099;-56
2021/07/09 00:12:14;;;;;;;;;;;;;;;21.47;63.07;101939.91;2208520;39;115541;-57
2021/07/09 00:13:46;;;;;;;;;;;;;;;21.48;63.07;101933.16;2210791;39;113663;-57
2021/07/09 00:15:18;;;;;;;;;;;;;;;21.48;62.89;101935.97;2211037;39;113992;-56
2021/07/09 00:16:50;;;;;;;;;;;;;;;21.49;63.20;101936.78;2216060;39;113805;-57
2021/07/09 00:18:22;;;;;;;;;;;;;;;21.49;62.99;101934.81;2199432;39;114081;-57
2021/07/09 00:19:54;;;;;;;;;;;;;;;21.51;63.12;101932.56;2207090;39;113786;-57
2021/07/09 00:21:26;;;;;;;;;;;;;;;21.51;63.05;101932.56;2212097;39;113662;-57
2021/07/09 00:22:59;;;;;;;;;;;;;;;21.52;63.12;101936.22;2211310;39;113884;-57
2021/07/09 00:24:32;;;;;;;;;;;;;;;21.50;63.18;101936.50;2211412;39;114505;-56
2021/07/09 00:26:03;;;;;;;;;;;;;;;21.51;63.32;101931.72;2210715;39;113840;-57
2021/07/09 00:27:35;;;;;;;;;;;;;;;21.50;63.28;101936.50;2211297;39;113776;-56
2021/07/09 00:29:07;;;;;;;;;;;;;;;21.56;63.36;101932.53;2211424;39;113654;-56
2021/07/09 00:30:39;;;;;;;;;;;;;;;21.54;63.31;101925.50;2209589;39;114106;-56
2021/07/09 00:32:11;;;;;;;;;;;;;;;21.53;63.12;101930.28;2209445;39;114569;-57
2021/07/09 00:33:43;;;;;;;;;;;;;;;21.53;63.33;101923.84;2211832;39;113649;-56
2021/07/09 00:35:15;;;;;;;;;;;;;;;21.51;63.29;101932.56;2214361;39;113766;-57
2021/07/09 00:36:47;;;;;;;;;;;;;;;21.52;63.13;101933.41;2211494;39;114554;-57
2021/07/09 00:38:22;;;;;;;;;;;;;;;21.51;63.07;101931.72;2206753;39;114779;-57
2021/07/09 00:39:54;;;;;;;;;;;;;;;21.56;63.32;101931.69;2216084;39;114054;-58
2021/07/09 00:41:26;;;;;;;;;;;;;;;21.55;63.02;101930.00;2213186;39;115646;-56
2021/07/09 00:42:57;;;;;;;;;;;;;;;21.53;63.18;101932.28;2211326;39;115721;-57
2021/07/09 00:44:30;;;;;;;;;;;;;;;21.54;63.13;101926.34;2212104;39;114811;-56
2021/07/09 00:46:02;;;;;;;;;;;;;;;21.52;62.84;101924.97;2204347;39;115629;-56
2021/07/09 00:47:34;;;;;;;;;;;;;;;21.59;63.22;101934.75;2209132;39;114716;-57
2021/07/09 00:49:06;;;;;;;;;;;;;;;21.58;63.00;101930.25;2216047;39;114865;-56
2021/07/09 00:50:38;;;;;;;;;;;;;;;21.53;63.11;101921.03;2212693;39;114955;-56
2021/07/09 00:52:10;;;;;;;;;;;;;;;21.54;63.43;101926.34;2211587;39;114912;-57
2021/07/09 00:53:42;;;;;;;;;;;;;;;21.54;63.15;101926.34;2211611;39;114777;-57
2021/07/09 00:55:14;;;;;;;;;;;;;;;21.53;63.16;101921.03;2203921;39;114671;-56
2021/07/09 00:56:47;;;;;;;;;;;;;;;21.52;63.26;101923.00;2213745;39;113970;-56
2021/07/09 00:58:19;;;;;;;;;;;;;;;21.52;63.06;101925.81;2210773;39;115518;-57
2021/07/09 00:59:53;;;;;;;;;;;;;;;21.52;62.92;101922.16;2210527;39;115523;-57
2021/07/09 01:01:25;;;;;;;;;;;;;;;21.52;63.17;101919.34;2211770;39;115926;-57
2021/07/09 01:02:57;;;;;;;;;;;;;;;21.53;63.36;101924.66;2210863;39;114564;-56
2021/07/09 01:04:29;;;;;;;;;;;;;;;21.53;63.28;101926.66;2211531;39;115463;-56
2021/07/09 01:06:00;;;;;;;;;;;;;;;21.52;63.27;101924.97;2211587;39;115431;-57
2021/07/09 01:07:33;;;;;;;;;;;;;;;21.54;63.58;101923.53;2211088;39;115761;-57
2021/07/09 01:09:05;;;;;;;;;;;;;;;21.54;63.38;101917.91;2210413;39;114534;-56
2021/07/09 01:10:36;;;;;;;;;;;;;;;21.54;63.55;101917.06;2210975;39;115510;-57
2021/07/09 01:12:08;;;;;;;;;;;;;;;21.55;63.56;101916.78;2207470;39;114718;-57
2021/07/09 01:13:41;;;;;;;;;;;;;;;21.53;63.42;101921.03;2211607;39;115609;-57
2021/07/09 01:15:14;;;;;;;;;;;;;;;21.52;63.45;101920.19;2215660;39;115926;-56
2021/07/09 01:16:47;;;;;;;;;;;;;;;21.55;63.10;101921.56;2207379;39;115623;-57
2021/07/09 01:18:19;;;;;;;;;;;;;;;21.54;63.50;101923.53;2208907;39;115512;-57
2021/07/09 01:19:52;;;;;;;;;;;;;;;21.53;63.46;101926.66;2211372;39;114092;-56
2021/07/09 01:21:23;;;;;;;;;;;;;;;21.54;63.39;101928.31;2210329;39;113774;-57
2021/07/09 01:22:56;;;;;;;;;;;;;;;21.53;63.65;101933.09;2210388;39;113948;-56
2021/07/09 01:24:28;;;;;;;;;;;;;;;21.53;63.52;101924.66;2212749;39;113750;-56
2021/07/09 01:26:00;;;;;;;;;;;;;;;21.53;63.35;101919.03;2210819;39;113666;-57
2021/07/09 01:27:32;;;;;;;;;;;;;;;21.55;63.44;101915.94;2206142;39;113918;-57
2021/07/09 01:29:04;;;;;;;;;;;;;;;21.55;63.39;101918.75;2209895;39;113765;-57
2021/07/09 01:30:37;;;;;;;;;;;;;;;21.57;63.27;101920.16;2207633;39;113774;-56
2021/07/09 01:32:09;;;;;;;;;;;;;;;21.58;63.46;101920.97;2208319;39;113752;-57
2021/07/09 01:33:41;;;;;;;;;;;;;;;21.58;63.20;101918.16;2211076;39;114080;-56
2021/07/09 01:35:13;;;;;;;;;;;;;;;21.58;63.43;101915.34;2208778;39;113933;-56
2021/07/09 01:36:45;;;;;;;;;;;;;;;21.55;63.40;101911.16;2211407;39;114071;-56
2021/07/09 01:38:17;;;;;;;;;;;;;;;21.56;63.18;101909.19;2211718;39;113733;-56
2021/07/09 01:39:49;;;;;;;;;;;;;;;21.57;63.33;101905.25;2214148;39;113720;-56
2021/07/09 01:41:21;;;;;;;;;;;;;;;21.56;63.57;101915.66;2211921;39;115563;-56
2021/07/09 01:42:53;;;;;;;;;;;;;;;21.58;63.46;101904.94;2211501;39;114577;-56
2021/07/09 01:44:26;;;;;;;;;;;;;;;21.57;63.51;101888.41;2208571;39;114967;-56
2021/07/09 01:45:58;;;;;;;;;;;;;;;21.56;63.23;101898.78;2211380;39;115043;-57
2021/07/09 01:47:31;;;;;;;;;;;;;;;21.59;63.16;101901.00;2211348;39;115242;-57
2021/07/09 01:49:03;;;;;;;;;;;;;;;21.55;63.13;101904.69;2210200;39;113953;-57
2021/07/09 01:50:35;;;;;;;;;;;;;;;21.56;63.25;101901.59;2210607;39;114770;-56
2021/07/09 01:52:06;;;;;;;;;;;;;;;21.59;63.37;101906.63;2211343;39;114762;-57
2021/07/09 01:53:38;;;;;;;;;;;;;;;21.59;63.23;101906.63;2210430;39;114972;-57
2021/07/09 01:55:11;;;;;;;;;;;;;;;21.56;63.45;101907.22;2211635;39;114721;-57
2021/07/09 01:56:42;;;;;;;;;;;;;;;21.55;63.24;101905.53;2211510;39;114406;-57
2021/07/09 01:58:14;;;;;;;;;;;;;;;21.54;63.25;101900.22;2210991;39;113966;-56
2021/07/09 01:59:47;;;;;;;;;;;;;;;21.54;63.55;101901.03;2211706;39;115287;-57
2021/07/09 02:01:18;;;;;;;;;;;;;;;21.53;63.55;101901.38;2213746;39;114778;-57
2021/07/09 02:02:50;;;;;;;;;;;;;;;21.56;63.54;101895.97;2211050;39;115699;-57
2021/07/09 02:04:22;;;;;;;;;;;;;;;21.59;63.52;101898.19;2210208;39;114548;-57
2021/07/09 02:05:54;;;;;;;;;;;;;;;21.56;63.56;101895.97;2211238;39;115587;-57
2021/07/09 02:07:26;;;;;;;;;;;;;;;21.55;63.64;101888.69;2208160;39;115458;-56
2021/07/09 02:08:58;;;;;;;;;;;;;;;21.54;63.45;101895.44;2209683;39;115792;-57
2021/07/09 02:10:31;;;;;;;;;;;;;;;21.56;63.36;101892.31;2208185;39;115562;-56
2021/07/09 02:12:03;;;;;;;;;;;;;;;21.54;63.25;101889.81;2209892;39;114608;-57
2021/07/09 02:13:35;;;;;;;;;;;;;;;21.53;63.25;101893.72;2211826;39;115421;-56
2021/07/09 02:15:09;;;;;;;;;;;;;;;21.57;63.33;101882.78;2211287;39;115490;-57
2021/07/09 02:16:41;;;;;;;;;;;;;;;21.58;63.40;101890.03;2211458;39;115584;-56
2021/07/09 02:18:14;;;;;;;;;;;;;;;21.59;63.49;101894.53;2210669;39;115839;-57
2021/07/09 02:21:21;;;;;;;;;;;;;;;21.58;63.62;101892.84;2208632;39;115481;-57
2021/07/09 02:22:54;;;;;;;;;;;;;;;21.54;63.58;101886.16;2209037;39;115626;-57
2021/07/09 02:24:26;;;;;;;;;;;;;;;21.52;63.30;101885.63;2212648;39;115882;-56
2021/07/09 02:25:58;;;;;;;;;;;;;;;21.50;63.62;101882.25;2211149;39;113999;-57
2021/07/09 02:27:30;;;;;;;;;;;;;;;21.53;63.67;101893.72;2210941;39;113912;-56
2021/07/09 02:29:02;;;;;;;;;;;;;;;21.52;63.61;101891.25;2209798;39;113941;-57
2021/07/09 02:30:35;;;;;;;;;;;;;;;21.53;63.58;101892.94;2209774;39;113839;-56
2021/07/09 02:32:09;;;;;;;;;;;;;;;21.50;63.45;101893.50;2213660;39;114160;-57
2021/07/09 02:33:41;;;;;;;;;;;;;;;21.50;63.23;101883.09;2212867;39;113633;-57
2021/07/09 02:35:14;;;;;;;;;;;;;;;21.52;63.61;101891.25;2211365;39;114704;-57
2021/07/09 02:36:46;;;;;;;;;;;;;;;21.50;63.80;101883.09;2204450;39;114208;-57
2021/07/09 02:38:18;;;;;;;;;;;;;;;21.49;63.89;101884.22;2208836;39;113768;-57
2021/07/09 02:39:50;;;;;;;;;;;;;;;21.52;63.76;101886.47;2210634;39;113957;-57
2021/07/09 02:41:22;;;;;;;;;;;;;;;21.52;63.68;101883.66;2211093;39;114238;-57
2021/07/09 02:42:55;;;;;;;;;;;;;;;21.51;63.53;101881.97;2209512;39;116611;-57
2021/07/09 02:44:27;;;;;;;;;;;;;;;21.49;63.69;101878.59;2204142;39;114371;-56
2021/07/09 02:45:59;;;;;;;;;;;;;;;21.51;63.59;101879.16;2205779;39;113641;-57
2021/07/09 02:47:37;;;;;;;;;;;;;;;21.51;63.50;101873.53;2202983;39;115187;-57
2021/07/09 02:49:09;;;;;;;;;;;;;;;21.51;63.54;101876.34;2212682;39;114759;-56
2021/07/09 02:50:41;;;;;;;;;;;;;;;21.50;63.61;101877.47;2210756;39;114900;-57
2021/07/09 02:52:13;;;;;;;;;;;;;;;21.51;63.68;101873.53;2210607;39;113887;-57
2021/07/09 02:53:44;;;;;;;;;;;;;;;21.53;63.52;101876.06;2210493;39;114758;-56
2021/07/09 02:55:17;;;;;;;;;;;;;;;21.52;63.29;101871.56;2210819;39;115121;-57
2021/07/09 02:56:49;;;;;;;;;;;;;;;21.52;63.43;101878.03;2210615;39;114908;-57
2021/07/09 02:58:21;;;;;;;;;;;;;;;21.50;63.54;101871.84;2210468;39;114134;-57
2021/07/09 02:59:53;;;;;;;;;;;;;;;21.53;63.54;101874.06;2211119;39;114728;-57
2021/07/09 03:01:26;;;;;;;;;;;;;;;21.53;63.55;101873.25;2210991;39;115389;-57
2021/07/09 03:02:58;;;;;;;;;;;;;;;21.52;63.35;101868.75;2209924;39;114775;-57
2021/07/09 03:04:30;;;;;;;;;;;;;;;21.51;63.59;101873.53;2210073;39;114804;-57
2021/07/09 03:06:01;;;;;;;;;;;;;;;21.52;63.48;101865.94;2211243;39;114839;-62
2021/07/09 03:07:34;;;;;;;;;;;;;;;21.50;63.83;101866.22;2213745;39;114880;-57
2021/07/09 03:09:06;;;;;;;;;;;;;;;21.52;63.57;101866.78;2210311;39;115975;-56
2021/07/09 03:10:38;;;;;;;;;;;;;;;21.51;63.79;101861.44;2209494;39;115500;-56
2021/07/09 03:12:10;;;;;;;;;;;;;;;21.52;63.74;101860.31;2211020;39;115553;-56
2021/07/09 03:13:42;;;;;;;;;;;;;;;21.50;63.59;101849.34;2211040;39;115521;-56
2021/07/09 03:15:14;;;;;;;;;;;;;;;21.52;63.60;101863.13;2210895;39;115632;-56
2021/07/09 03:16:46;;;;;;;;;;;;;;;21.51;63.87;101855.81;2210551;39;115804;-56
2021/07/09 03:18:18;;;;;;;;;;;;;;;21.53;63.88;101853.56;2210848;39;115476;-56
2021/07/09 03:19:50;;;;;;;;;;;;;;;21.50;63.83;101846.53;2210499;39;115503;-56
2021/07/09 03:21:22;;;;;;;;;;;;;;;21.52;64.05;101852.72;2211155;39;115619;-57
2021/07/09 03:22:54;;;;;;;;;;;;;;;21.52;64.14;101863.13;2211165;39;115494;-57
2021/07/09 03:24:26;;;;;;;;;;;;;;;21.52;63.95;101854.69;2210856;39;115572;-57
2021/07/09 03:26:00;;;;;;;;;;;;;;;21.51;63.83;101853.84;2211048;39;115550;-57
2021/07/09 03:27:32;;;;;;;;;;;;;;;21.50;63.61;101859.75;2204146;39;115919;-56
2021/07/09 03:29:04;;;;;;;;;;;;;;;21.50;63.80;101863.41;2212187;39;115483;-56
2021/07/09 03:30:36;;;;;;;;;;;;;;;21.48;63.68;101865.69;2210931;39;114137;-56
2021/07/09 03:32:09;;;;;;;;;;;;;;;21.50;63.76;101854.13;2212000;39;113712;-56
2021/07/09 03:33:41;;;;;;;;;;;;;;;21.50;63.79;101863.41;2209700;39;115164;-57
2021/07/09 03:35:13;;;;;;;;;;;;;;;21.50;63.90;101862.56;2211959;39;113747;-56
2021/07/09 03:36:45;;;;;;;;;;;;;;;21.50;63.96;101863.41;2210406;39;113713;-57
2021/07/09 03:38:20;;;;;;;;;;;;;;;21.51;63.74;101855.81;2212064;39;113875;-57
2021/07/09 03:39:52;;;;;;;;;;;;;;;21.49;63.59;101853.28;2210701;39;114277;-57
2021/07/09 03:41:24;;;;;;;;;;;;;;;21.53;63.71;101854.38;2211835;39;114251;-57
2021/07/09 03:42:57;;;;;;;;;;;;;;;21.52;63.89;101858.34;2210816;39;113909;-57
2021/07/09 03:44:29;;;;;;;;;;;;;;;21.49;63.76;101858.06;2205698;39;113696;-56
2021/07/09 03:46:01;;;;;;;;;;;;;;;21.49;63.67;101852.44;2210481;39;113918;-57
2021/07/09 03:47:33;;;;;;;;;;;;;;;21.51;63.94;101851.03;2209209;39;114629;-57
2021/07/09 03:49:07;;;;;;;;;;;;;;;21.52;63.76;101847.09;2209592;39;114058;-57
2021/07/09 03:50:39;;;;;;;;;;;;;;;21.50;63.80;101843.72;2204946;39;113857;-56
2021/07/09 03:52:10;;;;;;;;;;;;;;;21.49;64.01;101842.03;2212542;39;113885;-57
2021/07/09 03:53:42;;;;;;;;;;;;;;;21.52;63.88;101841.47;2205777;39;115285;-57
2021/07/09 03:55:14;;;;;;;;;;;;;;;21.50;64.00;101860.59;2211921;39;114802;-56
2021/07/09 03:56:46;;;;;;;;;;;;;;;21.55;64.00;101854.94;2210682;39;114797;-57
2021/07/09 03:58:18;;;;;;;;;;;;;;;21.50;64.05;101849.34;2209338;39;115235;-57
2021/07/09 03:59:50;;;;;;;;;;;;;;;21.50;63.76;101848.50;2209814;39;114911;-57
2021/07/09 04:01:22;;;;;;;;;;;;;;;21.50;63.58;101859.75;2210417;39;114735;-57
2021/07/09 04:02:54;;;;;;;;;;;;;;;21.50;63.84;101854.97;2211275;39;114834;-58
2021/07/09 04:04:26;;;;;;;;;;;;;;;21.49;63.75;101855.25;2211758;39;114785;-57
2021/07/09 04:05:58;;;;;;;;;;;;;;;21.51;63.74;101848.22;2211070;39;114874;-56
2021/07/09 04:07:30;;;;;;;;;;;;;;;21.49;63.70;101853.28;2209956;39;115691;-56
2021/07/09 04:09:02;;;;;;;;;;;;;;;21.48;63.91;101846.00;2211470;39;114669;-58
2021/07/09 04:10:34;;;;;;;;;;;;;;;21.49;63.74;101853.28;2210090;39;115412;-57
2021/07/09 04:12:07;;;;;;;;;;;;;;;21.49;63.70;101858.91;2211578;39;115006;-56
2021/07/09 04:13:39;;;;;;;;;;;;;;;21.49;63.69;101858.91;2214144;39;114716;-57
2021/07/09 04:15:11;;;;;;;;;;;;;;;21.50;63.55;101851.31;2211788;39;115253;-57
2021/07/09 04:16:43;;;;;;;;;;;;;;;21.48;63.67;101851.63;2210391;39;116359;-57
2021/07/09 04:18:15;;;;;;;;;;;;;;;21.49;63.60;101858.91;2210380;39;114938;-57
2021/07/09 04:19:49;;;;;;;;;;;;;;;21.48;63.60;101862.88;2207481;39;115472;-57
2021/07/09 04:21:21;;;;;;;;;;;;;;;21.51;63.59;101867.91;2211546;39;115487;-56
2021/07/09 04:22:54;;;;;;;;;;;;;;;21.50;63.89;101859.75;2211179;39;116051;-57
2021/07/09 04:24:26;;;;;;;;;;;;;;;21.51;63.48;101862.28;2211027;39;115538;-57
2021/07/09 04:25:58;;;;;;;;;;;;;;;21.49;63.81;101867.34;2207693;39;115430;-57
2021/07/09 04:27:30;;;;;;;;;;;;;;;21.49;63.76;101864.53;2208332;39;115797;-57
2021/07/09 04:29:02;;;;;;;;;;;;;;;21.47;63.46;101866.81;2211524;39;115561;-57
2021/07/09 04:30:34;;;;;;;;;;;;;;;21.48;63.51;101868.50;2209999;39;115513;-57
2021/07/09 04:32:07;;;;;;;;;;;;;;;21.49;63.40;101867.34;2208032;39;116303;-57
2021/07/09 04:33:39;;;;;;;;;;;;;;;21.48;63.62;101867.66;2211348;39;115545;-57
2021/07/09 04:35:11;;;;;;;;;;;;;;;21.49;63.66;101864.53;2214013;39;115557;-57
2021/07/09 04:36:43;;;;;;;;;;;;;;;21.47;63.46;101866.81;2209009;39;113691;-57
2021/07/09 04:38:15;;;;;;;;;;;;;;;21.48;63.40;101862.03;2210627;39;113756;-57
2021/07/09 04:39:47;;;;;;;;;;;;;;;21.48;63.74;101871.31;2211461;39;113832;-57
2021/07/09 04:41:19;;;;;;;;;;;;;;;21.47;63.55;101872.44;2209556;39;113577;-56
2021/07/09 04:42:51;;;;;;;;;;;;;;;21.47;63.35;101874.41;2211191;39;113618;-57
2021/07/09 04:44:23;;;;;;;;;;;;;;;21.47;63.56;101883.69;2210170;39;114512;-57
2021/07/09 04:45:54;;;;;;;;;;;;;;;21.45;63.72;101877.50;2211791;39;113781;-57
2021/07/09 04:47:26;;;;;;;;;;;;;;;21.43;63.79;101882.59;2211812;39;113694;-57
2021/07/09 04:48:58;;;;;;;;;;;;;;;21.48;63.40;101888.19;2206925;39;113675;-56
2021/07/09 04:50:30;;;;;;;;;;;;;;;21.43;63.44;101888.22;2211480;39;113631;-56
2021/07/09 04:52:02;;;;;;;;;;;;;;;21.48;63.42;101881.72;2213430;39;113724;-57
2021/07/09 04:53:34;;;;;;;;;;;;;;;21.47;63.25;101883.69;2211270;39;113675;-56
2021/07/09 04:55:06;;;;;;;;;;;;;;;21.50;63.44;101887.88;2211136;39;113894;-57
2021/07/09 04:56:38;;;;;;;;;;;;;;;21.47;63.42;101877.22;2214675;39;113732;-57
2021/07/09 04:58:10;;;;;;;;;;;;;;;21.46;63.41;101879.19;2210361;39;114797;-57
2021/07/09 04:59:42;;;;;;;;;;;;;;;21.45;63.36;101882.28;2210494;39;114670;-57
2021/07/09 05:01:15;;;;;;;;;;;;;;;21.44;63.56;101875.00;2214134;39;114808;-57
2021/07/09 05:02:47;;;;;;;;;;;;;;;21.45;63.33;101873.84;2208270;39;114808;-56
2021/07/09 05:04:19;;;;;;;;;;;;;;;21.44;63.26;101881.44;2211152;39;115033;-57
2021/07/09 05:05:51;;;;;;;;;;;;;;;21.43;63.64;101893.84;2211489;39;114857;-56
2021/07/09 05:07:23;;;;;;;;;;;;;;;21.46;63.54;101882.00;2211414;39;114805;-57
2021/07/09 05:08:55;;;;;;;;;;;;;;;21.44;63.22;101887.06;2210139;39;114684;-57
2021/07/09 05:10:26;;;;;;;;;;;;;;;21.45;63.42;101888.75;2206863;39;115504;-57
2021/07/09 05:12:00;;;;;;;;;;;;;;;21.45;63.51;101887.91;2210422;39;113842;-58
2021/07/09 05:13:32;;;;;;;;;;;;;;;21.43;63.17;101893.84;2211320;39;114840;-57
2021/07/09 05:15:05;;;;;;;;;;;;;;;21.42;63.53;101896.91;2207866;39;114928;-57
2021/07/09 05:16:37;;;;;;;;;;;;;;;21.41;63.40;101898.88;2211609;39;114834;-57
2021/07/09 05:18:09;;;;;;;;;;;;;;;21.40;63.24;101900.00;2217385;39;114749;-57
2021/07/09 05:19:41;;;;;;;;;;;;;;;21.39;63.54;101900.34;2210797;39;115634;-56
2021/07/09 05:21:12;;;;;;;;;;;;;;;21.42;63.43;101902.53;2211182;39;116257;-56
2021/07/09 05:22:44;;;;;;;;;;;;;;;21.40;63.46;101899.16;2211261;39;114595;-56
2021/07/09 05:24:17;;;;;;;;;;;;;;;21.41;63.31;101896.09;2210844;39;115783;-57
2021/07/09 05:25:49;;;;;;;;;;;;;;;21.39;63.27;101898.38;2209176;39;115199;-57
2021/07/09 05:27:22;;;;;;;;;;;;;;;21.40;63.29;101899.16;2209450;39;115487;-57
2021/07/09 05:28:54;;;;;;;;;;;;;;;21.41;63.35;101892.44;2210354;39;116405;-55
2021/07/09 05:30:26;;;;;;;;;;;;;;;21.40;63.44;101907.59;2211291;39;115854;-56
2021/07/09 05:31:58;;;;;;;;;;;;;;;21.40;63.61;101902.81;2204563;39;115507;-57
2021/07/09 05:33:30;;;;;;;;;;;;;;;21.42;63.55;101902.53;2211427;39;115424;-57
2021/07/09 05:35:02;;;;;;;;;;;;;;;21.43;63.54;101905.06;2212462;39;115824;-57
2021/07/09 05:36:34;;;;;;;;;;;;;;;21.42;63.33;101903.38;2210784;39;115442;-56
2021/07/09 05:38:06;;;;;;;;;;;;;;;21.41;63.39;101912.94;2208246;39;115536;-57
2021/07/09 05:39:38;;;;;;;;;;;;;;;21.41;63.74;101912.09;2209200;39;115455;-56
2021/07/09 05:41:10;;;;;;;;;;;;;;;21.39;63.48;101909.59;2213146;39;115553;-57
2021/07/09 05:42:42;;;;;;;;;;;;;;;21.41;63.45;101912.09;2211627;39;113610;-57
2021/07/09 05:44:14;;;;;;;;;;;;;;;21.42;63.41;101903.38;2208993;39;113710;-57
2021/07/09 05:45:46;;;;;;;;;;;;;;;21.46;63.48;101906.44;2209420;39;113654;-57
2021/07/09 05:47:19;;;;;;;;;;;;;;;21.42;63.55;101908.16;2208985;39;114288;-56
2021/07/09 05:48:51;;;;;;;;;;;;;;;21.46;63.62;101909.25;2209866;39;113701;-57
2021/07/09 05:50:25;;;;;;;;;;;;;;;21.43;63.48;101913.50;2211154;39;114103;-57
2021/07/09 05:51:57;;;;;;;;;;;;;;;21.40;63.60;101914.06;2211635;39;113670;-57
2021/07/09 05:53:31;;;;;;;;;;;;;;;21.41;63.62;101910.13;2211345;39;113783;-56
2021/07/09 05:55:03;;;;;;;;;;;;;;;21.42;63.76;101910.97;2209936;39;113767;-56
2021/07/09 05:56:35;;;;;;;;;;;;;;;21.41;63.68;101912.94;2209597;39;113642;-57
2021/07/09 05:58:07;;;;;;;;;;;;;;;21.42;63.83;101913.78;2210911;39;113982;-57
2021/07/09 05:59:39;;;;;;;;;;;;;;;21.41;63.48;101912.94;2211162;39;113830;-57
2021/07/09 06:01:11;;;;;;;;;;;;;;;21.42;63.83;101920.25;2209746;39;113750;-56
2021/07/09 06:02:43;;;;;;;;;;;;;;;21.41;63.59;101918.56;2211570;39;113793;-57
2021/07/09 06:04:15;;;;;;;;;;;;;;;21.41;63.55;101924.19;2210415;39;113820;-57
2021/07/09 06:05:47;;;;;;;;;;;;;;;21.40;63.52;101922.50;2211317;39;114798;-57
2021/07/09 06:07:19;;;;;;;;;;;;;;;21.43;63.54;101921.09;2211438;39;115574;-57
2021/07/09 06:08:52;;;;;;;;;;;;;;;21.47;63.48;101930.63;2211297;39;114978;-57
2021/07/09 06:10:25;;;;;;;;;;;;;;;21.41;63.42;101924.19;2208840;39;115421;-57
2021/07/09 06:11:57;;;;;;;;;;;;;;;21.41;63.47;101928.97;2210426;39;114796;-57
2021/07/09 06:13:29;;;;;;;;;;;;;;;21.41;63.50;101929.81;2211594;39;114830;-57
2021/07/09 06:15:02;;;;;;;;;;;;;;;21.44;63.64;101932.03;2207548;39;114358;-57
2021/07/09 06:16:34;;;;;;;;;;;;;;;21.44;63.52;101934.03;2214114;39;114823;-57
2021/07/09 06:18:06;;;;;;;;;;;;;;;21.42;63.51;101931.50;2211236;39;114941;-56
2021/07/09 06:19:38;;;;;;;;;;;;;;;21.44;63.54;101934.84;2211061;39;114794;-57
2021/07/09 06:21:10;;;;;;;;;;;;;;;21.45;63.91;101927.25;2210468;39;115167;-57
2021/07/09 06:22:42;;;;;;;;;;;;;;;21.44;63.57;101932.03;2211054;39;115591;-57
2021/07/09 06:24:14;;;;;;;;;;;;;;;21.45;63.64;101933.72;2213800;39;114549;-57
2021/07/09 06:25:46;;;;;;;;;;;;;;;21.42;64.13;101939.94;2211277;39;116211;-56
2021/07/09 06:27:19;;;;;;;;;;;;;;;21.42;64.33;101931.50;2208849;39;114512;-57
2021/07/09 06:28:51;;;;;;;;;;;;;;;21.44;64.10;101931.22;2209913;39;115698;-56
2021/07/09 06:30:23;;;;;;;;;;;;;;;21.47;64.56;101936.25;2210079;39;114674;-57
2021/07/09 06:31:55;;;;;;;;;;;;;;;21.47;64.73;101937.09;2210236;39;115538;-57
2021/07/09 06:33:27;;;;;;;;;;;;;;;21.49;64.51;101936.78;2210730;39;115540;-57
2021/07/09 06:34:59;;;;;;;;;;;;;;;21.51;64.94;101935.38;2210902;39;115886;-57
2021/07/09 06:36:30;;;;;;;;;;;;;;;21.53;64.74;101935.91;2208356;39;116293;-56
2021/07/09 06:38:03;;;;;;;;;;;;;;;21.55;64.76;101941.25;2207327;39;115533;-56
2021/07/09 06:39:35;;;;;;;;;;;;;;;21.55;64.62;101936.47;2210609;39;115577;-56
2021/07/09 06:41:07;;;;;;;;;;;;;;;21.58;64.71;101940.66;2210843;39;115531;-57
2021/07/09 06:42:40;;;;;;;;;;;;;;;21.59;64.34;101939.53;2212773;39;115611;-56
2021/07/09 06:44:12;;;;;;;;;;;;;;;21.61;64.56;101945.72;2211570;39;115517;-56
2021/07/09 06:45:44;;;;;;;;;;;;;;;21.62;64.43;101941.78;2212927;39;115485;-58
2021/07/09 06:47:16;;;;;;;;;;;;;;;21.63;64.78;101933.03;2208297;39;113641;-56
2021/07/09 06:48:48;;;;;;;;;;;;;;;21.65;64.32;101941.19;2210576;39;113968;-56
2021/07/09 06:50:20;;;;;;;;;;;;;;;21.66;64.69;101931.63;2211187;39;114325;-56
2021/07/09 06:51:52;;;;;;;;;;;;;;;21.69;64.61;101929.06;2209911;39;113685;-56
2021/07/09 06:53:24;;;;;;;;;;;;;;;21.70;64.15;101927.94;2213205;39;113686;-56
2021/07/09 06:54:56;;;;;;;;;;;;;;;21.70;63.99;101942.00;2210838;39;113772;-56
2021/07/09 06:56:28;;;;;;;;;;;;;;;21.71;64.09;101935.22;2210912;39;113844;-56
2021/07/09 06:58:00;;;;;;;;;;;;;;;21.73;64.28;101932.13;2207689;39;113772;-56
2021/07/09 06:59:32;;;;;;;;;;;;;;;21.74;64.05;101929.03;2208399;39;113744;-57
2021/07/09 07:01:04;;;;;;;;;;;;;;;21.76;64.18;101933.53;2210230;39;113807;-56
2021/07/09 07:02:36;;;;;;;;;;;;;;;21.75;64.20;101929.88;2208392;39;113788;-56
2021/07/09 07:04:09;;;;;;;;;;;;;;;21.76;64.09;101934.34;2210500;39;113787;-56
2021/07/09 07:05:41;;;;;;;;;;;;;;;21.76;64.24;101937.16;2211282;39;113768;-57
2021/07/09 07:07:13;;;;;;;;;;;;;;;21.77;64.13;101941.66;2212005;39;113892;-57
2021/07/09 07:08:45;;;;;;;;;;;;;;;21.78;64.33;101951.78;2214030;39;113763;-57
2021/07/09 07:10:16;;;;;;;;;;;;;;;21.79;64.16;101952.63;2211954;39;114784;-56
2021/07/09 07:11:48;;;;;;;;;;;;;;;21.80;64.01;101954.31;2210943;39;115327;-57
2021/07/09 07:13:23;;;;;;;;;;;;;;;21.80;63.93;101943.06;2211109;39;115002;-56
2021/07/09 07:14:55;;;;;;;;;;;;;;;21.81;63.91;101950.34;2211524;39;114951;-57
2021/07/09 07:16:27;;;;;;;;;;;;;;;21.81;64.15;101950.34;2211395;39;114820;-56
2021/07/09 07:18:02;;;;;;;;;;;;;;;21.80;64.00;101946.72;2211003;39;114957;-57
2021/07/09 07:19:34;;;;;;;;;;;;;;;21.82;63.95;101943.59;2211536;39;114817;-57
2021/07/09 07:21:06;;;;;;;;;;;;;;;21.84;63.86;101949.78;2211492;39;115674;-57
2021/07/09 07:22:38;;;;;;;;;;;;;;;21.83;63.94;101946.13;2211405;39;115513;-56
2021/07/09 07:24:10;;;;;;;;;;;;;;;21.84;63.91;101944.16;2211644;39;115365;-56
2021/07/09 07:25:42;;;;;;;;;;;;;;;21.85;63.89;101943.03;2211680;39;114062;-56
2021/07/09 07:27:14;;;;;;;;;;;;;;;21.85;63.94;101946.66;2213497;39;114816;-56
2021/07/09 07:28:46;;;;;;;;;;;;;;;21.86;63.50;101950.31;2212485;39;114829;-57
2021/07/09 07:30:18;;;;;;;;;;;;;;;21.87;63.62;101949.19;2214286;39;114708;-57
2021/07/09 07:31:50;;;;;;;;;;;;;;;21.87;63.56;101954.81;2212778;39;116214;-57
2021/07/09 07:33:24;;;;;;;;;;;;;;;21.87;63.35;101952.00;2211269;39;115589;-56
2021/07/09 07:35:15;;;;;;;;;;;;;;;21.88;63.62;101950.88;2208408;39;116588;-56
2021/07/09 07:36:47;;;;;;;;;;;;;;;21.88;63.58;101942.44;2212086;39;114665;-56
2021/07/09 07:38:19;;;;;;;;;;;;;;;21.88;63.54;101946.09;2208317;39;115324;-57
2021/07/09 07:39:51;;;;;;;;;;;;;;;21.89;63.58;101955.38;2210438;39;115538;-56
2021/07/09 07:41:23;;;;;;;;;;;;;;;21.89;63.56;101944.13;2211236;39;115487;-57
2021/07/09 07:42:55;;;;;;;;;;;;;;;21.89;63.42;101947.78;2211402;39;115386;-57
2021/07/09 07:44:27;;;;;;;;;;;;;;;21.90;63.69;101942.97;2211927;39;115470;-56
2021/07/09 07:45:59;;;;;;;;;;;;;;;21.91;63.57;101950.28;2211554;39;115645;-56
2021/07/09 07:47:31;;;;;;;;;;;;;;;21.91;63.39;101945.50;2210670;39;114966;-56
2021/07/09 07:49:02;;;;;;;;;;;;;;;21.91;63.28;101945.50;2210781;39;115438;-57
2021/07/09 07:50:34;;;;;;;;;;;;;;;21.91;63.38;101948.31;2211758;39;115535;-56